sensor_id;sensor_type;location;lat;lon;timestamp;pressure;altitude;pressure_sealevel;temperature;humidity
40205;BME280;26963;42.666;23.366;2022-10-16T22:14:19;96187.28;;;12.49;49.70
40205;BME280;26963;42.666;23.366;2022-10-16T22:16:47;96209.81;;;12.53;50.01
40205;BME280;26963;42.666;23.366;2022-10-16T22:19:25;96192.41;;;12.46;50.22
40205;BME280;26963;42.666;23.366;2022-10-16T22:21:53;96181.97;;;12.34;50.20
40205;BME280;26963;42.666;23.366;2022-10-16T22:24:21;96089.53;;;11.69;50.44
40205;BME280;26963;42.666;23.366;2022-10-16T22:27:03;96166.44;;;12.10;50.84
40205;BME280;26963;42.666;23.366;2022-10-16T22:29:32;96203.16;;;12.30;51.14
40205;BME280;26963;42.666;23.366;2022-10-16T22:31:58;96203.44;;;12.18;51.11
40205;BME280;26963;42.666;23.366;2022-10-16T22:34:23;96198.63;;;12.10;51.37
40205;BME280;26963;42.666;23.366;2022-10-16T22:36:49;96215.28;;;12.17;51.42
40205;BME280;26963;42.666;23.366;2022-10-16T22:39:17;96208.56;;;12.04;51.25
40205;BME280;26963;42.666;23.366;2022-10-16T22:41:43;96194.88;;;11.96;51.65
40205;BME280;26963;42.666;23.366;2022-10-16T22:44:12;96195.41;;;11.93;51.59
40205;BME280;26963;42.666;23.366;2022-10-16T22:46:37;96212.03;;;11.95;52.09
40205;BME280;26963;42.666;23.366;2022-10-16T22:49:09;96201.84;;;11.86;52.28
40205;BME280;26963;42.666;23.366;2022-10-16T22:51:37;96199.16;;;11.76;52.42
40205;BME280;26963;42.666;23.366;2022-10-16T22:54:02;96205.59;;;11.75;51.98
40205;BME280;26963;42.666;23.366;2022-10-16T22:56:28;96198.09;;;11.67;52.28
40205;BME280;26963;42.666;23.366;2022-10-16T22:58:54;96231.06;;;11.83;52.31
40205;BME280;26963;42.666;23.366;2022-10-16T23:01:26;96228.09;;;11.84;52.06
40205;BME280;26963;42.666;23.366;2022-10-16T23:03:52;96220.88;;;11.80;52.02
40205;BME280;26963;42.666;23.366;2022-10-16T23:06:20;96165.88;;;11.25;52.22
40205;BME280;26963;42.666;23.366;2022-10-16T23:08:50;96234.53;;;11.63;52.45
40205;BME280;26963;42.666;23.366;2022-10-16T23:11:19;96165.31;;;11.13;52.39
40205;BME280;26963;42.666;23.366;2022-10-16T23:13:45;96230.78;;;11.48;52.54
40205;BME280;26963;42.666;23.366;2022-10-16T23:16:16;96212.50;;;11.35;52.60
40205;BME280;26963;42.666;23.366;2022-10-16T23:18:50;96228.09;;;11.43;52.68
40205;BME280;26963;42.666;23.366;2022-10-16T23:21:23;96216.28;;;11.34;52.77
40205;BME280;26963;42.666;23.366;2022-10-16T23:23:50;96232.63;;;11.37;52.84
40205;BME280;26963;42.666;23.366;2022-10-16T23:26:38;96168.50;;;10.95;52.80
40205;BME280;26963;42.666;23.366;2022-10-16T23:29:03;96234.78;;;11.35;53.08
40205;BME280;26963;42.666;23.366;2022-10-16T23:31:29;96239.06;;;11.31;53.35
40205;BME280;26963;42.666;23.366;2022-10-16T23:33:55;96170.63;;;10.87;53.06
40205;BME280;26963;42.666;23.366;2022-10-16T23:36:24;96203.88;;;11.07;52.93
40205;BME280;26963;42.666;23.366;2022-10-16T23:38:50;96246.25;;;11.25;52.95
40205;BME280;26963;42.666;23.366;2022-10-16T23:41:17;96226.94;;;11.13;52.98
40205;BME280;26963;42.666;23.366;2022-10-16T23:43:46;96221.56;;;11.08;53.09
40205;BME280;26963;42.666;23.366;2022-10-16T23:46:15;96189.66;;;10.91;53.16
40205;BME280;26963;42.666;23.366;2022-10-16T23:48:43;96182.41;;;10.86;53.06
40205;BME280;26963;42.666;23.366;2022-10-16T23:51:11;96234.97;;;11.18;53.18
40205;BME280;26963;42.666;23.366;2022-10-16T23:53:37;96203.84;;;10.97;53.15
40205;BME280;26963;42.666;23.366;2022-10-16T23:56:03;96222.63;;;11.07;53.34
40205;BME280;26963;42.666;23.366;2022-10-16T23:58:29;96249.19;;;11.19;52.84
